Gilmore, Arkansas
Current Conditions -  °F | °C
As of 9:53 PM on Wednesday 26 Nov 2014 (Local Time) from KAWM Reporting Station
Clear Clear  
Wind Chill: 41°   Ceiling: Unl
Heat Index: 41°   Visibility: 10mi
Dew Point: 32°   Wind: 3mph
Humidity: 70%   Direction: 310°NW
Pressure: 30.17"   Gusts: NA
Location:  35.41°N, 90.28°W
Report Text: KAWM 270353Z AUTO 31003KT 10SM CLR 05/00 A3017 RMK AO2 SLP219 T00500000
Loading
Personal Weather Stations






























Interactive Weather Map New forecast layout! Learn more

10-Day Weather Forecast

Advertisements
Track Severe Weather on mobile